sensor_id;sensor_type;location;lat;lon;timestamp;temperature;humidity
29813;DHT22;16707;48.106;11.548;2022-11-15T00:01:48;1.90;99.90
29813;DHT22;16707;48.106;11.548;2022-11-15T00:04:18;2.00;99.90
29813;DHT22;16707;48.106;11.548;2022-11-15T00:06:45;2.00;99.90
29813;DHT22;16707;48.106;11.548;2022-11-15T00:09:12;2.00;99.90
29813;DHT22;16707;48.106;11.548;2022-11-15T00:11:39;1.90;99.90
29813;DHT22;16707;48.106;11.548;2022-11-15T00:14:07;2.00;99.90
29813;DHT22;16707;48.106;11.548;2022-11-15T00:16:36;1.90;99.90
29813;DHT22;16707;48.106;11.548;2022-11-15T00:19:06;2.00;99.90
29813;DHT22;16707;48.106;11.548;2022-11-15T00:21:43;2.00;99.90
29813;DHT22;16707;48.106;11.548;2022-11-15T00:24:10;2.00;99.90
29813;DHT22;16707;48.106;11.548;2022-11-15T00:26:41;2.00;99.90
29813;DHT22;16707;48.106;11.548;2022-11-15T00:29:09;2.00;99.90
29813;DHT22;16707;48.106;11.548;2022-11-15T00:31:39;2.00;99.90
29813;DHT22;16707;48.106;11.548;2022-11-15T00:34:06;2.00;99.90
29813;DHT22;16707;48.106;11.548;2022-11-15T00:36:33;1.90;99.90
29813;DHT22;16707;48.106;11.548;2022-11-15T00:39:00;1.80;99.90
29813;DHT22;16707;48.106;11.548;2022-11-15T00:41:30;1.80;99.90
29813;DHT22;16707;48.106;11.548;2022-11-15T00:43:56;1.80;99.90
29813;DHT22;16707;48.106;11.548;2022-11-15T00:46:25;1.80;99.90
29813;DHT22;16707;48.106;11.548;2022-11-15T00:48:52;1.80;99.90
29813;DHT22;16707;48.106;11.548;2022-11-15T00:51:22;1.80;99.90
29813;DHT22;16707;48.106;11.548;2022-11-15T00:53:52;1.80;99.90
29813;DHT22;16707;48.106;11.548;2022-11-15T00:56:22;1.80;99.90
29813;DHT22;16707;48.106;11.548;2022-11-15T00:58:50;1.80;99.90
29813;DHT22;16707;48.106;11.548;2022-11-15T01:01:19;1.80;99.90
29813;DHT22;16707;48.106;11.548;2022-11-15T01:03:49;1.80;99.90
29813;DHT22;16707;48.106;11.548;2022-11-15T01:06:16;1.80;99.90
29813;DHT22;16707;48.106;11.548;2022-11-15T01:08:43;1.80;99.90
29813;DHT22;16707;48.106;11.548;2022-11-15T01:11:11;1.90;99.90
29813;DHT22;16707;48.106;11.548;2022-11-15T01:13:44;1.80;99.90
29813;DHT22;16707;48.106;11.548;2022-11-15T01:16:14;1.80;99.90
29813;DHT22;16707;48.106;11.548;2022-11-15T01:18:42;1.80;99.90
29813;DHT22;16707;48.106;11.548;2022-11-15T01:21:12;1.80;99.90
29813;DHT22;16707;48.106;11.548;2022-11-15T01:23:52;1.80;99.90
29813;DHT22;16707;48.106;11.548;2022-11-15T01:26:26;1.80;99.90
29813;DHT22;16707;48.106;11.548;2022-11-15T01:28:56;1.80;99.90
29813;DHT22;16707;48.106;11.548;2022-11-15T01:31:23;1.80;99.90
29813;DHT22;16707;48.106;11.548;2022-11-15T01:33:49;1.80;99.90
29813;DHT22;16707;48.106;11.548;2022-11-15T01:36:21;1.90;99.90
29813;DHT22;16707;48.106;11.548;2022-11-15T01:38:53;2.00;99.90
29813;DHT22;16707;48.106;11.548;2022-11-15T01:41:23;1.90;99.90
29813;DHT22;16707;48.106;11.548;2022-11-15T01:43:54;1.80;99.90
29813;DHT22;16707;48.106;11.548;2022-11-15T01:46:28;1.80;99.90
29813;DHT22;16707;48.106;11.548;2022-11-15T01:48:57;1.70;99.90
29813;DHT22;16707;48.106;11.548;2022-11-15T01:51:30;1.70;99.90
29813;DHT22;16707;48.106;11.548;2022-11-15T01:54:05;1.70;99.90
29813;DHT22;16707;48.106;11.548;2022-11-15T01:56:46;1.80;99.90
29813;DHT22;16707;48.106;11.548;2022-11-15T01:59:18;1.70;99.90
29813;DHT22;16707;48.106;11.548;2022-11-15T02:01:46;1.60;99.90
29813;DHT22;16707;48.106;11.548;2022-11-15T02:04:16;1.60;99.90
29813;DHT22;16707;48.106;11.548;2022-11-15T02:06:47;1.70;99.90
29813;DHT22;16707;48.106;11.548;2022-11-15T02:09:15;1.80;99.90
29813;DHT22;16707;48.106;11.548;2022-11-15T02:11:44;1.70;99.90
29813;DHT22;16707;48.106;11.548;2022-11-15T02:14:20;1.70;99.90
29813;DHT22;16707;48.106;11.548;2022-11-15T02:16:54;1.60;99.90
29813;DHT22;16707;48.106;11.548;2022-11-15T02:19:53;1.60;99.90
29813;DHT22;16707;48.106;11.548;2022-11-15T02:22:37;1.60;99.90
29813;DHT22;16707;48.106;11.548;2022-11-15T02:25:39;1.50;99.90
29813;DHT22;16707;48.106;11.548;2022-11-15T02:28:16;1.40;99.90
29813;DHT22;16707;48.106;11.548;2022-11-15T02:30:51;1.30;99.90
29813;DHT22;16707;48.106;11.548;2022-11-15T02:33:29;1.30;99.90
29813;DHT22;16707;48.106;11.548;2022-11-15T02:36:09;1.30;99.90
29813;DHT22;16707;48.106;11.548;2022-11-15T02:38:41;1.40;99.90
29813;DHT22;16707;48.106;11.548;2022-11-15T02:41:14;1.40;99.90
29813;DHT22;16707;48.106;11.548;2022-11-15T02:43:47;1.40;99.90
29813;DHT22;16707;48.106;11.548;2022-11-15T02:46:32;1.30;99.90
29813;DHT22;16707;48.106;11.548;2022-11-15T02:49:18;1.30;99.90
29813;DHT22;16707;48.106;11.548;2022-11-15T02:51:49;1.30;99.90
29813;DHT22;16707;48.106;11.548;2022-11-15T02:54:21;1.30;99.90
29813;DHT22;16707;48.106;11.548;2022-11-15T02:56:50;1.30;99.90
29813;DHT22;16707;48.106;11.548;2022-11-15T02:59:29;1.20;99.90
29813;DHT22;16707;48.106;11.548;2022-11-15T03:02:11;1.20;99.90
29813;DHT22;16707;48.106;11.548;2022-11-15T03:04:52;1.10;99.90
29813;DHT22;16707;48.106;11.548;2022-11-15T03:07:26;1.10;99.90
29813;DHT22;16707;48.106;11.548;2022-11-15T03:10:02;1.10;99.90
29813;DHT22;16707;48.106;11.548;2022-11-15T03:12:36;1.10;99.90
29813;DHT22;16707;48.106;11.548;2022-11-15T03:15:11;1.10;99.90
29813;DHT22;16707;48.106;11.548;2022-11-15T03:17:47;1.00;99.90
29813;DHT22;16707;48.106;11.548;2022-11-15T03:20:17;1.10;99.90
29813;DHT22;16707;48.106;11.548;2022-11-15T03:22:45;1.00;99.90
29813;DHT22;16707;48.106;11.548;2022-11-15T03:25:17;1.10;99.90
29813;DHT22;16707;48.106;11.548;2022-11-15T03:27:50;1.00;99.90
29813;DHT22;16707;48.106;11.548;2022-11-15T03:30:18;1.00;99.90
29813;DHT22;16707;48.106;11.548;2022-11-15T03:32:51;1.00;99.90
29813;DHT22;16707;48.106;11.548;2022-11-15T03:35:21;1.10;99.90
29813;DHT22;16707;48.106;11.548;2022-11-15T03:38:00;1.10;99.90
29813;DHT22;16707;48.106;11.548;2022-11-15T03:40:36;1.10;99.90
29813;DHT22;16707;48.106;11.548;2022-11-15T03:43:15;1.10;99.90
29813;DHT22;16707;48.106;11.548;2022-11-15T03:45:48;1.00;99.90
29813;DHT22;16707;48.106;11.548;2022-11-15T03:48:33;1.00;99.90
29813;DHT22;16707;48.106;11.548;2022-11-15T03:51:08;1.00;99.90
29813;DHT22;16707;48.106;11.548;2022-11-15T03:53:39;1.00;99.90
29813;DHT22;16707;48.106;11.548;2022-11-15T03:56:20;1.00;99.90
29813;DHT22;16707;48.106;11.548;2022-11-15T03:58:49;1.10;99.90
29813;DHT22;16707;48.106;11.548;2022-11-15T04:01:20;1.10;99.90
29813;DHT22;16707;48.106;11.548;2022-11-15T04:03:54;1.10;99.90
29813;DHT22;16707;48.106;11.548;2022-11-15T04:06:21;1.10;99.90
29813;DHT22;16707;48.106;11.548;2022-11-15T04:08:48;1.00;99.90
29813;DHT22;16707;48.106;11.548;2022-11-15T04:11:15;0.90;99.90
29813;DHT22;16707;48.106;11.548;2022-11-15T04:13:42;0.90;99.90
29813;DHT22;16707;48.106;11.548;2022-11-15T04:16:09;0.90;99.90
29813;DHT22;16707;48.106;11.548;2022-11-15T04:18:36;0.90;99.90
29813;DHT22;16707;48.106;11.548;2022-11-15T04:21:05;0.90;99.90
29813;DHT22;16707;48.106;11.548;2022-11-15T04:23:50;0.90;99.90
29813;DHT22;16707;48.106;11.548;2022-11-15T04:26:34;0.90;99.90
29813;DHT22;16707;48.106;11.548;2022-11-15T04:29:01;0.90;99.90
29813;DHT22;16707;48.106;11.548;2022-11-15T04:31:45;0.90;99.90
29813;DHT22;16707;48.106;11.548;2022-11-15T04:34:12;0.80;99.90
29813;DHT22;16707;48.106;11.548;2022-11-15T04:36:41;0.90;99.90
29813;DHT22;16707;48.106;11.548;2022-11-15T04:39:25;1.00;99.90
29813;DHT22;16707;48.106;11.548;2022-11-15T04:41:52;0.90;99.90
29813;DHT22;16707;48.106;11.548;2022-11-15T04:44:21;0.90;99.90
29813;DHT22;16707;48.106;11.548;2022-11-15T04:46:48;0.80;99.90
29813;DHT22;16707;48.106;11.548;2022-11-15T04:49:15;0.70;99.90
29813;DHT22;16707;48.106;11.548;2022-11-15T04:51:44;0.90;99.90
29813;DHT22;16707;48.106;11.548;2022-11-15T04:54:11;0.80;99.90
29813;DHT22;16707;48.106;11.548;2022-11-15T04:56:38;0.80;99.90
29813;DHT22;16707;48.106;11.548;2022-11-15T04:59:14;0.70;99.90
29813;DHT22;16707;48.106;11.548;2022-11-15T05:01:41;0.70;99.90
29813;DHT22;16707;48.106;11.548;2022-11-15T05:04:07;0.60;99.90
29813;DHT22;16707;48.106;11.548;2022-11-15T05:06:51;0.60;99.90
29813;DHT22;16707;48.106;11.548;2022-11-15T05:09:20;0.70;99.90
29813;DHT22;16707;48.106;11.548;2022-11-15T05:11:48;0.80;99.90
29813;DHT22;16707;48.106;11.548;2022-11-15T05:14:15;0.70;99.90
29813;DHT22;16707;48.106;11.548;2022-11-15T05:16:51;0.70;99.90
29813;DHT22;16707;48.106;11.548;2022-11-15T05:19:26;0.60;99.90
29813;DHT22;16707;48.106;11.548;2022-11-15T05:21:55;0.60;99.90
29813;DHT22;16707;48.106;11.548;2022-11-15T05:24:22;0.70;99.90
29813;DHT22;16707;48.106;11.548;2022-11-15T05:26:49;0.60;99.90
29813;DHT22;16707;48.106;11.548;2022-11-15T05:29:16;0.60;99.90
29813;DHT22;16707;48.106;11.548;2022-11-15T05:31:43;0.60;99.90
29813;DHT22;16707;48.106;11.548;2022-11-15T05:34:10;0.60;99.90
29813;DHT22;16707;48.106;11.548;2022-11-15T05:36:38;0.60;99.90
29813;DHT22;16707;48.106;11.548;2022-11-15T05:39:07;0.50;99.90
29813;DHT22;16707;48.106;11.548;2022-11-15T05:41:38;0.50;99.90
29813;DHT22;16707;48.106;11.548;2022-11-15T05:46:34;0.60;99.90
29813;DHT22;16707;48.106;11.548;2022-11-15T05:49:05;0.60;99.90
29813;DHT22;16707;48.106;11.548;2022-11-15T05:51:33;0.60;99.90
29813;DHT22;16707;48.106;11.548;2022-11-15T05:54:03;0.60;99.90
29813;DHT22;16707;48.106;11.548;2022-11-15T05:56:32;0.60;99.90
29813;DHT22;16707;48.106;11.548;2022-11-15T05:58:59;0.60;99.90
29813;DHT22;16707;48.106;11.548;2022-11-15T06:01:26;0.60;99.90
29813;DHT22;16707;48.106;11.548;2022-11-15T06:03:54;0.60;99.90
29813;DHT22;16707;48.106;11.548;2022-11-15T06:06:21;0.60;99.90
29813;DHT22;16707;48.106;11.548;2022-11-15T06:08:51;0.60;99.90
29813;DHT22;16707;48.106;11.548;2022-11-15T06:11:18;0.60;99.90
29813;DHT22;16707;48.106;11.548;2022-11-15T06:13:47;0.60;99.90
29813;DHT22;16707;48.106;11.548;2022-11-15T06:16:13;0.60;99.90
29813;DHT22;16707;48.106;11.548;2022-11-15T06:18:41;0.70;99.90
29813;DHT22;16707;48.106;11.548;2022-11-15T06:21:10;0.60;99.90
29813;DHT22;16707;48.106;11.548;2022-11-15T06:23:37;0.60;99.90
29813;DHT22;16707;48.106;11.548;2022-11-15T06:26:07;0.60;99.90
29813;DHT22;16707;48.106;11.548;2022-11-15T06:28:34;0.60;99.90
29813;DHT22;16707;48.106;11.548;2022-11-15T06:31:07;0.70;99.90
29813;DHT22;16707;48.106;11.548;2022-11-15T06:33:36;0.60;99.90
29813;DHT22;16707;48.106;11.548;2022-11-15T06:36:05;0.60;99.90
29813;DHT22;16707;48.106;11.548;2022-11-15T06:38:33;0.70;99.90
29813;DHT22;16707;48.106;11.548;2022-11-15T06:41:03;0.80;99.90
29813;DHT22;16707;48.106;11.548;2022-11-15T06:43:31;0.80;99.90
29813;DHT22;16707;48.106;11.548;2022-11-15T06:46:06;0.90;99.90
29813;DHT22;16707;48.106;11.548;2022-11-15T06:48:34;1.00;99.90
29813;DHT22;16707;48.106;11.548;2022-11-15T06:51:03;1.20;99.90
29813;DHT22;16707;48.106;11.548;2022-11-15T06:53:31;1.30;99.90
29813;DHT22;16707;48.106;11.548;2022-11-15T06:55:59;1.40;99.90
29813;DHT22;16707;48.106;11.548;2022-11-15T06:58:26;1.30;99.90
29813;DHT22;16707;48.106;11.548;2022-11-15T07:00:58;1.40;99.90
29813;DHT22;16707;48.106;11.548;2022-11-15T07:03:27;1.30;99.90
29813;DHT22;16707;48.106;11.548;2022-11-15T07:05:57;1.40;99.90
29813;DHT22;16707;48.106;11.548;2022-11-15T07:08:26;1.40;99.90
29813;DHT22;16707;48.106;11.548;2022-11-15T07:10:53;1.50;99.90
29813;DHT22;16707;48.106;11.548;2022-11-15T07:13:24;1.50;99.90
29813;DHT22;16707;48.106;11.548;2022-11-15T07:15:51;1.70;99.90
29813;DHT22;16707;48.106;11.548;2022-11-15T07:18:18;1.70;99.90
29813;DHT22;16707;48.106;11.548;2022-11-15T07:20:47;1.80;99.90
29813;DHT22;16707;48.106;11.548;2022-11-15T07:23:14;2.00;99.90
29813;DHT22;16707;48.106;11.548;2022-11-15T07:25:42;2.10;99.90
29813;DHT22;16707;48.106;11.548;2022-11-15T07:28:10;2.20;99.90
29813;DHT22;16707;48.106;11.548;2022-11-15T07:30:37;2.30;99.90
29813;DHT22;16707;48.106;11.548;2022-11-15T07:33:04;2.40;99.90
29813;DHT22;16707;48.106;11.548;2022-11-15T07:35:35;2.50;99.90
29813;DHT22;16707;48.106;11.548;2022-11-15T07:38:04;2.90;99.90
29813;DHT22;16707;48.106;11.548;2022-11-15T07:40:31;3.30;99.90
29813;DHT22;16707;48.106;11.548;2022-11-15T07:43:03;3.40;99.90
29813;DHT22;16707;48.106;11.548;2022-11-15T07:45:30;3.40;99.90
29813;DHT22;16707;48.106;11.548;2022-11-15T07:47:59;3.50;99.90
29813;DHT22;16707;48.106;11.548;2022-11-15T07:50:29;3.50;99.90
29813;DHT22;16707;48.106;11.548;2022-11-15T07:52:57;3.70;99.90
29813;DHT22;16707;48.106;11.548;2022-11-15T07:55:27;3.70;99.90
29813;DHT22;16707;48.106;11.548;2022-11-15T07:58:00;3.70;99.90
29813;DHT22;16707;48.106;11.548;2022-11-15T08:00:31;3.80;99.90
29813;DHT22;16707;48.106;11.548;2022-11-15T08:03:02;3.90;99.90
29813;DHT22;16707;48.106;11.548;2022-11-15T08:05:29;4.20;99.90
29813;DHT22;16707;48.106;11.548;2022-11-15T08:07:59;4.30;99.90
29813;DHT22;16707;48.106;11.548;2022-11-15T08:10:33;4.50;99.90
29813;DHT22;16707;48.106;11.548;2022-11-15T08:13:00;4.70;99.90
29813;DHT22;16707;48.106;11.548;2022-11-15T08:15:28;4.90;99.90
29813;DHT22;16707;48.106;11.548;2022-11-15T08:17:59;5.00;99.90
29813;DHT22;16707;48.106;11.548;2022-11-15T08:20:27;5.20;99.90
29813;DHT22;16707;48.106;11.548;2022-11-15T08:23:10;5.40;99.90
29813;DHT22;16707;48.106;11.548;2022-11-15T08:25:42;5.60;99.90
29813;DHT22;16707;48.106;11.548;2022-11-15T08:28:10;5.80;99.90
29813;DHT22;16707;48.106;11.548;2022-11-15T08:30:38;5.90;99.90
29813;DHT22;16707;48.106;11.548;2022-11-15T08:33:10;6.10;99.90
29813;DHT22;16707;48.106;11.548;2022-11-15T08:35:38;6.30;99.90
29813;DHT22;16707;48.106;11.548;2022-11-15T08:38:16;6.50;99.90
29813;DHT22;16707;48.106;11.548;2022-11-15T08:40:44;6.60;99.90
29813;DHT22;16707;48.106;11.548;2022-11-15T08:43:11;6.70;99.90
29813;DHT22;16707;48.106;11.548;2022-11-15T08:45:38;6.70;99.90
29813;DHT22;16707;48.106;11.548;2022-11-15T08:48:08;6.80;99.90
29813;DHT22;16707;48.106;11.548;2022-11-15T08:50:36;7.00;99.90
29813;DHT22;16707;48.106;11.548;2022-11-15T08:53:06;7.10;99.90
29813;DHT22;16707;48.106;11.548;2022-11-15T08:55:36;7.30;99.90
29813;DHT22;16707;48.106;11.548;2022-11-15T08:58:06;7.50;99.90
29813;DHT22;16707;48.106;11.548;2022-11-15T09:00:34;7.60;99.90
29813;DHT22;16707;48.106;11.548;2022-11-15T09:03:07;7.70;99.90
29813;DHT22;16707;48.106;11.548;2022-11-15T09:05:36;7.90;99.90
29813;DHT22;16707;48.106;11.548;2022-11-15T09:08:04;8.00;99.90
29813;DHT22;16707;48.106;11.548;2022-11-15T09:10:31;8.20;99.90
29813;DHT22;16707;48.106;11.548;2022-11-15T09:12:58;8.40;99.90
29813;DHT22;16707;48.106;11.548;2022-11-15T09:15:26;8.60;99.90
29813;DHT22;16707;48.106;11.548;2022-11-15T09:17:58;8.80;99.90
29813;DHT22;16707;48.106;11.548;2022-11-15T09:20:25;9.00;99.90
29813;DHT22;16707;48.106;11.548;2022-11-15T09:22:52;9.10;99.90
29813;DHT22;16707;48.106;11.548;2022-11-15T09:25:19;9.30;99.90
29813;DHT22;16707;48.106;11.548;2022-11-15T09:27:46;9.40;99.90
29813;DHT22;16707;48.106;11.548;2022-11-15T09:30:15;9.40;99.90
29813;DHT22;16707;48.106;11.548;2022-11-15T09:32:44;9.50;99.90
29813;DHT22;16707;48.106;11.548;2022-11-15T09:35:11;9.50;99.90
29813;DHT22;16707;48.106;11.548;2022-11-15T09:37:38;9.70;99.90
29813;DHT22;16707;48.106;11.548;2022-11-15T09:40:06;9.70;99.90
29813;DHT22;16707;48.106;11.548;2022-11-15T09:42:51;9.90;99.90
29813;DHT22;16707;48.106;11.548;2022-11-15T09:45:23;10.10;99.80
29813;DHT22;16707;48.106;11.548;2022-11-15T09:48:23;10.30;99.90
29813;DHT22;16707;48.106;11.548;2022-11-15T09:50:58;10.30;98.60
29813;DHT22;16707;48.106;11.548;2022-11-15T09:53:32;10.40;97.10
29813;DHT22;16707;48.106;11.548;2022-11-15T09:56:02;10.60;96.70
29813;DHT22;16707;48.106;11.548;2022-11-15T09:58:37;10.70;96.50
29813;DHT22;16707;48.106;11.548;2022-11-15T10:01:11;10.90;94.10
29813;DHT22;16707;48.106;11.548;2022-11-15T10:03:41;11.00;93.80
29813;DHT22;16707;48.106;11.548;2022-11-15T10:06:13;11.20;93.90
29813;DHT22;16707;48.106;11.548;2022-11-15T10:08:51;11.20;92.50
29813;DHT22;16707;48.106;11.548;2022-11-15T10:11:26;11.40;93.30
29813;DHT22;16707;48.106;11.548;2022-11-15T10:13:59;11.50;91.80
29813;DHT22;16707;48.106;11.548;2022-11-15T10:16:56;11.60;92.00
29813;DHT22;16707;48.106;11.548;2022-11-15T10:19:33;11.70;90.90
29813;DHT22;16707;48.106;11.548;2022-11-15T10:22:16;11.80;90.10
29813;DHT22;16707;48.106;11.548;2022-11-15T10:24:48;11.90;90.00
29813;DHT22;16707;48.106;11.548;2022-11-15T10:27:18;12.00;89.00
29813;DHT22;16707;48.106;11.548;2022-11-15T10:29:46;12.10;88.50
29813;DHT22;16707;48.106;11.548;2022-11-15T10:32:17;12.20;88.30
29813;DHT22;16707;48.106;11.548;2022-11-15T10:34:47;12.10;86.00
29813;DHT22;16707;48.106;11.548;2022-11-15T10:37:27;12.10;85.10
29813;DHT22;16707;48.106;11.548;2022-11-15T10:40:04;12.20;84.40
29813;DHT22;16707;48.106;11.548;2022-11-15T10:42:34;12.40;84.60
29813;DHT22;16707;48.106;11.548;2022-11-15T10:45:01;12.40;83.50
29813;DHT22;16707;48.106;11.548;2022-11-15T10:47:30;12.50;81.00
29813;DHT22;16707;48.106;11.548;2022-11-15T10:50:11;12.60;82.30
29813;DHT22;16707;48.106;11.548;2022-11-15T10:52:53;12.60;83.70
29813;DHT22;16707;48.106;11.548;2022-11-15T10:55:24;12.70;83.60
29813;DHT22;16707;48.106;11.548;2022-11-15T10:57:56;12.90;79.90
29813;DHT22;16707;48.106;11.548;2022-11-15T11:00:34;12.90;79.40
29813;DHT22;16707;48.106;11.548;2022-11-15T11:03:05;13.00;80.70
29813;DHT22;16707;48.106;11.548;2022-11-15T11:05:36;13.00;80.90
29813;DHT22;16707;48.106;11.548;2022-11-15T11:08:09;13.10;79.20
29813;DHT22;16707;48.106;11.548;2022-11-15T11:10:52;13.10;78.50
29813;DHT22;16707;48.106;11.548;2022-11-15T11:13:24;13.30;77.90
29813;DHT22;16707;48.106;11.548;2022-11-15T11:16:02;13.50;75.10
29813;DHT22;16707;48.106;11.548;2022-11-15T11:18:36;13.60;73.10
29813;DHT22;16707;48.106;11.548;2022-11-15T11:21:10;13.60;72.90
29813;DHT22;16707;48.106;11.548;2022-11-15T11:23:51;13.50;70.70
29813;DHT22;16707;48.106;11.548;2022-11-15T11:26:35;13.60;70.80
29813;DHT22;16707;48.106;11.548;2022-11-15T11:29:19;13.60;71.10
29813;DHT22;16707;48.106;11.548;2022-11-15T11:32:01;13.60;70.50
29813;DHT22;16707;48.106;11.548;2022-11-15T11:34:45;13.50;71.60
29813;DHT22;16707;48.106;11.548;2022-11-15T11:37:26;13.60;71.50
29813;DHT22;16707;48.106;11.548;2022-11-15T11:40:08;13.60;72.90
29813;DHT22;16707;48.106;11.548;2022-11-15T11:42:51;13.50;71.20
29813;DHT22;16707;48.106;11.548;2022-11-15T11:45:43;13.50;70.00
29813;DHT22;16707;48.106;11.548;2022-11-15T11:48:23;13.50;69.80
29813;DHT22;16707;48.106;11.548;2022-11-15T11:51:00;13.50;69.90
29813;DHT22;16707;48.106;11.548;2022-11-15T11:53:37;13.60;69.80
29813;DHT22;16707;48.106;11.548;2022-11-15T11:56:17;13.70;69.30
29813;DHT22;16707;48.106;11.548;2022-11-15T11:59:11;13.70;70.50
29813;DHT22;16707;48.106;11.548;2022-11-15T12:01:43;13.90;69.50
29813;DHT22;16707;48.106;11.548;2022-11-15T12:04:18;14.00;67.10
29813;DHT22;16707;48.106;11.548;2022-11-15T12:06:57;13.90;66.80
29813;DHT22;16707;48.106;11.548;2022-11-15T12:09:31;13.90;67.00
29813;DHT22;16707;48.106;11.548;2022-11-15T12:12:06;13.90;67.90
29813;DHT22;16707;48.106;11.548;2022-11-15T12:14:40;13.90;67.90
29813;DHT22;16707;48.106;11.548;2022-11-15T12:17:10;14.00;68.30
29813;DHT22;16707;48.106;11.548;2022-11-15T12:19:38;14.00;68.50
29813;DHT22;16707;48.106;11.548;2022-11-15T12:22:12;14.10;67.80
29813;DHT22;16707;48.106;11.548;2022-11-15T12:24:48;14.20;66.60
29813;DHT22;16707;48.106;11.548;2022-11-15T12:27:23;14.20;66.50
29813;DHT22;16707;48.106;11.548;2022-11-15T12:29:58;14.20;67.30
29813;DHT22;16707;48.106;11.548;2022-11-15T12:32:29;14.10;67.80
29813;DHT22;16707;48.106;11.548;2022-11-15T12:35:03;14.20;68.10
29813;DHT22;16707;48.106;11.548;2022-11-15T12:37:47;14.20;66.30
29813;DHT22;16707;48.106;11.548;2022-11-15T12:40:32;14.20;66.30
29813;DHT22;16707;48.106;11.548;2022-11-15T12:43:36;14.30;66.70
29813;DHT22;16707;48.106;11.548;2022-11-15T12:46:08;14.30;66.30
29813;DHT22;16707;48.106;11.548;2022-11-15T12:48:47;14.40;65.10
29813;DHT22;16707;48.106;11.548;2022-11-15T12:51:18;14.40;65.50
29813;DHT22;16707;48.106;11.548;2022-11-15T12:53:47;14.40;65.70
29813;DHT22;16707;48.106;11.548;2022-11-15T12:56:21;14.50;66.10
29813;DHT22;16707;48.106;11.548;2022-11-15T12:58:52;14.40;65.10
29813;DHT22;16707;48.106;11.548;2022-11-15T13:01:56;14.50;64.40
29813;DHT22;16707;48.106;11.548;2022-11-15T13:04:27;14.40;64.40
29813;DHT22;16707;48.106;11.548;2022-11-15T13:07:04;14.40;64.70
29813;DHT22;16707;48.106;11.548;2022-11-15T13:09:54;14.40;64.90
29813;DHT22;16707;48.106;11.548;2022-11-15T13:12:55;14.50;65.40
29813;DHT22;16707;48.106;11.548;2022-11-15T13:15:53;14.50;64.50
29813;DHT22;16707;48.106;11.548;2022-11-15T13:18:42;14.60;64.80
29813;DHT22;16707;48.106;11.548;2022-11-15T13:21:22;14.60;63.70
29813;DHT22;16707;48.106;11.548;2022-11-15T13:24:13;14.60;64.10
29813;DHT22;16707;48.106;11.548;2022-11-15T13:26:42;14.50;64.20
29813;DHT22;16707;48.106;11.548;2022-11-15T13:29:20;14.50;63.20
29813;DHT22;16707;48.106;11.548;2022-11-15T13:31:50;14.40;64.30
29813;DHT22;16707;48.106;11.548;2022-11-15T13:34:26;14.40;64.80
29813;DHT22;16707;48.106;11.548;2022-11-15T13:36:54;14.40;65.40
29813;DHT22;16707;48.106;11.548;2022-11-15T13:39:27;14.40;65.50
29813;DHT22;16707;48.106;11.548;2022-11-15T13:41:56;14.40;65.10
29813;DHT22;16707;48.106;11.548;2022-11-15T13:44:27;14.40;64.70
29813;DHT22;16707;48.106;11.548;2022-11-15T13:47:04;14.40;64.80
29813;DHT22;16707;48.106;11.548;2022-11-15T13:49:39;14.30;64.70
29813;DHT22;16707;48.106;11.548;2022-11-15T13:52:07;14.30;65.60
29813;DHT22;16707;48.106;11.548;2022-11-15T13:54:36;14.20;66.10
29813;DHT22;16707;48.106;11.548;2022-11-15T13:57:12;14.20;66.30
29813;DHT22;16707;48.106;11.548;2022-11-15T13:59:47;14.10;66.30
29813;DHT22;16707;48.106;11.548;2022-11-15T14:02:17;14.00;67.30
29813;DHT22;16707;48.106;11.548;2022-11-15T14:04:49;13.90;68.20
29813;DHT22;16707;48.106;11.548;2022-11-15T14:07:20;13.70;68.70
29813;DHT22;16707;48.106;11.548;2022-11-15T14:09:47;13.50;69.30
29813;DHT22;16707;48.106;11.548;2022-11-15T14:12:26;13.40;70.10
29813;DHT22;16707;48.106;11.548;2022-11-15T14:14:58;13.30;70.00
29813;DHT22;16707;48.106;11.548;2022-11-15T14:17:37;13.40;70.40
29813;DHT22;16707;48.106;11.548;2022-11-15T14:20:32;13.30;71.80
29813;DHT22;16707;48.106;11.548;2022-11-15T14:23:02;13.10;72.80
29813;DHT22;16707;48.106;11.548;2022-11-15T14:25:32;13.10;72.60
29813;DHT22;16707;48.106;11.548;2022-11-15T14:28:15;13.00;72.50
29813;DHT22;16707;48.106;11.548;2022-11-15T14:30:58;13.00;72.80
29813;DHT22;16707;48.106;11.548;2022-11-15T14:33:29;12.90;73.20
29813;DHT22;16707;48.106;11.548;2022-11-15T14:36:04;12.80;73.50
29813;DHT22;16707;48.106;11.548;2022-11-15T14:38:31;12.70;74.00
29813;DHT22;16707;48.106;11.548;2022-11-15T14:40:58;12.60;74.80
29813;DHT22;16707;48.106;11.548;2022-11-15T14:43:25;12.50;75.90
29813;DHT22;16707;48.106;11.548;2022-11-15T14:45:53;12.40;76.40
29813;DHT22;16707;48.106;11.548;2022-11-15T14:48:23;12.30;76.80
29813;DHT22;16707;48.106;11.548;2022-11-15T14:50:51;12.20;77.40
29813;DHT22;16707;48.106;11.548;2022-11-15T14:53:18;12.10;77.70
29813;DHT22;16707;48.106;11.548;2022-11-15T14:55:46;12.00;78.90
29813;DHT22;16707;48.106;11.548;2022-11-15T14:58:13;11.80;80.90
29813;DHT22;16707;48.106;11.548;2022-11-15T15:00:41;11.60;82.30
29813;DHT22;16707;48.106;11.548;2022-11-15T15:03:08;11.50;84.10
29813;DHT22;16707;48.106;11.548;2022-11-15T15:05:38;11.40;86.10
29813;DHT22;16707;48.106;11.548;2022-11-15T15:08:06;11.40;84.80
29813;DHT22;16707;48.106;11.548;2022-11-15T15:10:36;11.30;85.30
29813;DHT22;16707;48.106;11.548;2022-11-15T15:13:06;11.00;87.60
29813;DHT22;16707;48.106;11.548;2022-11-15T15:15:40;10.90;90.00
29813;DHT22;16707;48.106;11.548;2022-11-15T15:18:07;10.70;90.90
29813;DHT22;16707;48.106;11.548;2022-11-15T15:20:39;10.50;91.50
29813;DHT22;16707;48.106;11.548;2022-11-15T15:23:15;10.30;92.50
29813;DHT22;16707;48.106;11.548;2022-11-15T15:25:46;10.20;93.30
29813;DHT22;16707;48.106;11.548;2022-11-15T15:28:17;10.10;94.50
29813;DHT22;16707;48.106;11.548;2022-11-15T15:30:44;10.10;95.10
29813;DHT22;16707;48.106;11.548;2022-11-15T15:33:11;10.10;97.90
29813;DHT22;16707;48.106;11.548;2022-11-15T15:35:40;10.10;99.10
29813;DHT22;16707;48.106;11.548;2022-11-15T15:38:10;10.00;99.50
29813;DHT22;16707;48.106;11.548;2022-11-15T15:40:40;9.90;99.90
29813;DHT22;16707;48.106;11.548;2022-11-15T15:43:09;10.00;99.90
29813;DHT22;16707;48.106;11.548;2022-11-15T15:45:37;10.00;99.90
29813;DHT22;16707;48.106;11.548;2022-11-15T15:48:05;10.10;99.90
29813;DHT22;16707;48.106;11.548;2022-11-15T15:50:34;10.10;99.90
29813;DHT22;16707;48.106;11.548;2022-11-15T15:53:04;10.00;99.90
29813;DHT22;16707;48.106;11.548;2022-11-15T15:55:31;9.80;99.90
29813;DHT22;16707;48.106;11.548;2022-11-15T15:57:58;9.70;99.90
29813;DHT22;16707;48.106;11.548;2022-11-15T16:00:25;9.60;99.90